Time;durP1;ratioP1;P1;durP2;ratioP2;P2;SDS_P1;SDS_P2;PMS_P1;PMS_P2;Temp;Humidity;BMP_temperature;BMP_pressure;BME280_temperature;BME280_humidity;BME280_pressure;Samples;Min_cycle;Max_cycle;Signal;HPM_P1;HPM_P2
2021/01/26 00:01:29;;;;;;;1.35;0.70;;;19.90;38.30;;;;;;5076490;28;20044;-47
2021/01/26 00:03:54;;;;;;;1.58;0.80;;;20.00;38.30;;;;;;5074810;28;20021;-48
2021/01/26 00:06:20;;;;;;;1.27;0.80;;;20.00;38.30;;;;;;5056567;28;20447;-48
2021/01/26 00:08:46;;;;;;;2.67;0.98;;;20.00;38.30;;;;;;5055931;28;20031;-47
2021/01/26 00:11:12;;;;;;;2.20;1.10;;;19.90;38.20;;;;;;5056093;28;20025;-47
2021/01/26 00:13:37;;;;;;;1.15;0.60;;;19.90;38.20;;;;;;5056217;28;20339;-46
2021/01/26 00:16:04;;;;;;;1.48;0.60;;;19.90;38.10;;;;;;5055957;28;20100;-52
2021/01/26 00:18:29;;;;;;;1.75;0.80;;;19.90;38.10;;;;;;5056848;28;20174;-47
2021/01/26 00:20:55;;;;;;;1.67;0.95;;;19.90;38.10;;;;;;5056396;28;20462;-49
2021/01/26 00:23:21;;;;;;;1.83;0.60;;;19.90;38.10;;;;;;5056104;28;20094;-51
2021/01/26 00:25:46;;;;;;;1.48;0.80;;;19.80;38.10;;;;;;5056018;28;20029;-45
2021/01/26 00:28:14;;;;;;;1.90;0.70;;;19.80;38.10;;;;;;5056481;28;20048;-48
2021/01/26 00:30:41;;;;;;;1.65;0.70;;;19.80;38.10;;;;;;5056027;28;20040;-46
2021/01/26 00:33:14;;;;;;;2.60;0.70;;;19.80;38.10;;;;;;5056045;28;20355;-46
2021/01/26 00:35:40;;;;;;;2.30;0.60;;;19.80;38.00;;;;;;5056040;28;20100;-47
2021/01/26 00:38:06;;;;;;;2.75;1.00;;;19.80;38.10;;;;;;5055838;28;20034;-47
2021/01/26 00:40:31;;;;;;;1.33;0.68;;;19.80;38.10;;;;;;5056372;28;20025;-46
2021/01/26 00:42:58;;;;;;;1.92;0.73;;;19.80;38.10;;;;;;5055835;28;20029;-51
2021/01/26 00:45:26;;;;;;;1.52;0.88;;;19.80;38.10;;;;;;5056176;28;20090;-52
2021/01/26 00:47:52;;;;;;;1.60;0.68;;;19.70;38.00;;;;;;5055433;28;20048;-56
2021/01/26 00:50:19;;;;;;;1.85;0.70;;;19.70;38.10;;;;;;5056048;28;20087;-52
2021/01/26 00:52:45;;;;;;;1.83;0.60;;;19.70;38.10;;;;;;5056179;28;20020;-54
2021/01/26 00:55:11;;;;;;;1.83;0.63;;;19.70;38.10;;;;;;5056008;28;20104;-53
2021/01/26 00:57:39;;;;;;;1.20;0.80;;;19.70;38.10;;;;;;5055534;28;20029;-46
2021/01/26 01:00:07;;;;;;;2.45;0.88;;;19.60;38.00;;;;;;5055359;28;20029;-46
2021/01/26 01:02:33;;;;;;;1.45;0.73;;;19.60;38.00;;;;;;5055575;28;20021;-45
2021/01/26 01:04:59;;;;;;;1.30;0.70;;;19.60;38.00;;;;;;5055363;28;20021;-46
2021/01/26 01:07:24;;;;;;;1.83;0.90;;;19.60;38.00;;;;;;5055337;28;20337;-51
2021/01/26 01:09:50;;;;;;;1.75;0.77;;;19.60;38.00;;;;;;5055775;28;20433;-49
2021/01/26 01:12:15;;;;;;;2.47;0.73;;;19.60;38.00;;;;;;5055302;28;20075;-45
2021/01/26 01:14:42;;;;;;;1.08;0.60;;;19.60;38.00;;;;;;5055293;28;20029;-48
2021/01/26 01:17:08;;;;;;;2.50;0.90;;;19.60;38.00;;;;;;5055388;28;20032;-45
2021/01/26 01:19:33;;;;;;;2.95;0.80;;;19.60;38.00;;;;;;5054202;28;20040;-49
2021/01/26 01:21:59;;;;;;;1.23;0.70;;;19.60;38.00;;;;;;5055400;28;20033;-46
2021/01/26 01:24:24;;;;;;;1.33;0.60;;;19.50;37.90;;;;;;5055125;28;20017;-47
2021/01/26 01:26:50;;;;;;;2.53;0.90;;;19.50;37.90;;;;;;5055382;28;20040;-45
2021/01/26 01:29:16;;;;;;;1.27;0.60;;;19.50;37.90;;;;;;5055053;28;20025;-46
2021/01/26 01:31:41;;;;;;;2.25;1.00;;;19.50;37.90;;;;;;5054722;28;20104;-49
2021/01/26 01:34:08;;;;;;;2.83;0.90;;;19.50;37.90;;;;;;5054673;28;20106;-47
2021/01/26 01:36:35;;;;;;;1.17;0.60;;;19.50;37.90;;;;;;5054916;28;20021;-47
2021/01/26 01:39:00;;;;;;;1.08;0.50;;;19.40;37.80;;;;;;5055052;28;20033;-49
2021/01/26 01:41:34;;;;;;;3.00;0.80;;;19.50;37.90;;;;;;5054891;28;20025;-47
2021/01/26 01:44:00;;;;;;;1.90;0.73;;;19.50;37.90;;;;;;5055022;28;20343;-45
2021/01/26 01:46:28;;;;;;;2.65;0.60;;;19.40;37.90;;;;;;5055000;28;20025;-48
2021/01/26 01:48:57;;;;;;;1.55;0.70;;;19.40;38.00;;;;;;5054612;28;20021;-44
2021/01/26 01:51:24;;;;;;;2.88;0.90;;;19.40;38.00;;;;;;5054619;28;20094;-47
2021/01/26 01:53:57;;;;;;;1.40;0.75;;;19.40;38.00;;;;;;5054575;28;20025;-47
2021/01/26 01:56:47;;;;;;;2.47;0.77;;;19.40;38.00;;;;;;5054670;28;20078;-46
2021/01/26 01:59:18;;;;;;;1.85;0.65;;;19.40;38.00;;;;;;5054812;28;20120;-50
2021/01/26 02:01:46;;;;;;;3.03;0.93;;;19.40;38.00;;;;;;5054770;28;20052;-46
2021/01/26 02:04:14;;;;;;;1.92;0.55;;;19.40;38.00;;;;;;5054799;28;20056;-45
2021/01/26 02:06:43;;;;;;;2.25;0.90;;;19.30;38.00;;;;;;5054925;28;20017;-47
2021/01/26 02:09:14;;;;;;;1.58;0.70;;;19.30;38.00;;;;;;5054685;28;20029;-48
2021/01/26 02:11:40;;;;;;;3.08;0.70;;;19.30;38.00;;;;;;5054569;28;20068;-48
2021/01/26 02:14:06;;;;;;;3.63;0.98;;;19.30;38.00;;;;;;5054484;28;20029;-44
2021/01/26 02:16:54;;;;;;;2.53;0.70;;;19.30;38.00;;;;;;5054633;28;20025;-47
2021/01/26 02:19:47;;;;;;;2.35;0.82;;;19.30;38.00;;;;;;5041199;28;20041;-47
2021/01/26 02:22:31;;;;;;;2.92;0.93;;;19.30;38.00;;;;;;5054072;28;20395;-47
2021/01/26 02:25:05;;;;;;;2.63;0.90;;;19.30;38.00;;;;;;5054575;28;20029;-47
2021/01/26 02:27:49;;;;;;;2.22;0.82;;;19.30;38.00;;;;;;5054607;28;20032;-50
2021/01/26 02:30:31;;;;;;;4.78;0.90;;;19.20;38.00;;;;;;5054170;28;20459;-47
2021/01/26 02:33:49;;;;;;;1.15;0.70;;;19.20;38.00;;;;;;5057198;28;20025;-46
2021/01/26 02:36:33;;;;;;;3.42;0.95;;;19.20;38.00;;;;;;5058355;28;20028;-46
2021/01/26 02:39:26;;;;;;;2.97;1.00;;;19.20;38.00;;;;;;5058086;28;20108;-49
2021/01/26 02:42:16;;;;;;;2.10;0.75;;;19.20;38.00;;;;;;5058208;28;20098;-47
2021/01/26 02:45:19;;;;;;;2.25;1.17;;;19.20;38.00;;;;;;5058252;28;20036;-47
2021/01/26 02:48:15;;;;;;;2.60;1.02;;;19.20;38.00;;;;;;5040545;28;20363;-46
2021/01/26 02:50:51;;;;;;;3.20;1.10;;;19.10;38.00;;;;;;5058174;28;20049;-48
2021/01/26 02:53:35;;;;;;;2.70;0.70;;;19.10;38.00;;;;;;5057924;28;20079;-47
2021/01/26 02:56:15;;;;;;;3.53;0.90;;;19.10;38.00;;;;;;5057779;28;20048;-47
2021/01/26 02:58:53;;;;;;;2.75;0.85;;;19.10;38.00;;;;;;5058197;28;20017;-48
2021/01/26 03:01:19;;;;;;;2.10;0.73;;;19.10;38.00;;;;;;5057903;28;20424;-44
2021/01/26 03:03:55;;;;;;;1.10;0.52;;;19.10;38.10;;;;;;5058194;28;20354;-48
2021/01/26 03:06:28;;;;;;;2.05;0.77;;;19.10;38.00;;;;;;5057409;28;20028;-47
2021/01/26 03:09:00;;;;;;;1.58;0.70;;;19.10;38.10;;;;;;5057592;28;20032;-46
2021/01/26 03:11:39;;;;;;;1.58;0.63;;;19.10;38.10;;;;;;5057317;28;20032;-47
2021/01/26 03:14:24;;;;;;;1.98;0.70;;;19.10;38.10;;;;;;5057877;28;20082;-46
2021/01/26 03:17:04;;;;;;;2.20;0.73;;;19.10;38.10;;;;;;5057401;28;20025;-50
2021/01/26 03:19:33;;;;;;;1.70;0.60;;;19.10;38.10;;;;;;5057735;28;20107;-47
2021/01/26 03:22:01;;;;;;;2.20;0.85;;;19.10;38.10;;;;;;5057220;28;20037;-48
2021/01/26 03:24:32;;;;;;;3.13;0.90;;;19.10;38.10;;;;;;5057607;28;20025;-47
2021/01/26 03:27:05;;;;;;;2.13;0.70;;;19.00;38.10;;;;;;5057156;28;20092;-48
2021/01/26 03:29:34;;;;;;;1.45;0.50;;;19.00;38.10;;;;;;5057266;28;20118;-44
2021/01/26 03:32:05;;;;;;;1.73;0.80;;;19.00;38.10;;;;;;5057158;28;20032;-44
2021/01/26 03:34:33;;;;;;;1.27;0.70;;;19.00;38.10;;;;;;5057347;28;20429;-45
2021/01/26 03:37:00;;;;;;;1.70;0.60;;;19.00;38.10;;;;;;5057178;28;20064;-44
2021/01/26 03:39:26;;;;;;;1.65;0.70;;;19.00;38.10;;;;;;5056939;28;20036;-47
2021/01/26 03:41:52;;;;;;;2.92;0.80;;;19.00;38.10;;;;;;5057060;28;20387;-46
2021/01/26 03:44:17;;;;;;;1.55;0.80;;;19.00;38.10;;;;;;5056929;28;20061;-49
2021/01/26 03:47:18;;;;;;;1.63;0.70;;;19.00;38.10;;;;;;5056986;28;20401;-46
2021/01/26 03:49:52;;;;;;;2.15;0.60;;;19.00;38.10;;;;;;5051654;28;20040;-49
2021/01/26 03:52:23;;;;;;;3.15;0.90;;;19.00;38.00;;;;;;5057296;28;20025;-47
2021/01/26 03:55:10;;;;;;;2.35;0.82;;;19.00;38.00;;;;;;5056820;28;20029;-47
2021/01/26 03:57:57;;;;;;;2.72;0.77;;;19.00;38.00;;;;;;5056841;28;20127;-46
2021/01/26 04:00:35;;;;;;;2.92;0.93;;;18.90;38.00;;;;;;5056513;28;20033;-46
2021/01/26 04:03:04;;;;;;;2.80;0.80;;;18.90;38.00;;;;;;5056644;28;20021;-47
2021/01/26 04:06:01;;;;;;;1.98;0.70;;;18.90;38.10;;;;;;5057066;28;20025;-45
2021/01/26 04:08:32;;;;;;;1.52;0.55;;;18.90;38.10;;;;;;5001510;28;20123;-44
2021/01/26 04:11:08;;;;;;;2.70;0.68;;;18.90;38.10;;;;;;5055961;28;20033;-46
2021/01/26 04:13:46;;;;;;;1.98;0.70;;;18.90;38.10;;;;;;5056484;28;20025;-47
2021/01/26 04:16:15;;;;;;;2.13;0.85;;;18.90;38.10;;;;;;5056769;28;20029;-45
2021/01/26 04:18:43;;;;;;;1.83;0.50;;;18.90;38.20;;;;;;5056222;28;20022;-46
2021/01/26 04:21:10;;;;;;;1.58;0.70;;;18.90;38.20;;;;;;5055667;28;20163;-46
2021/01/26 04:23:39;;;;;;;2.35;0.80;;;18.90;38.20;;;;;;5056805;28;20048;-46
2021/01/26 04:26:09;;;;;;;1.65;0.90;;;18.90;38.20;;;;;;5056307;28;20082;-48
2021/01/26 04:28:44;;;;;;;1.40;0.70;;;18.80;38.10;;;;;;5056279;28;20338;-47
2021/01/26 04:31:12;;;;;;;3.67;1.13;;;18.80;38.20;;;;;;5055763;28;20048;-48
2021/01/26 04:33:39;;;;;;;2.60;0.93;;;18.80;38.30;;;;;;5055829;28;20110;-48
2021/01/26 04:36:05;;;;;;;2.17;0.70;;;18.80;38.30;;;;;;5055713;28;20505;-49
2021/01/26 04:38:31;;;;;;;2.38;0.85;;;18.80;38.30;;;;;;5055645;28;20478;-44
2021/01/26 04:41:15;;;;;;;2.20;0.63;;;18.80;38.30;;;;;;5056133;28;20025;-47
2021/01/26 04:44:05;;;;;;;2.35;0.82;;;18.80;38.40;;;;;;5056178;28;20021;-46
2021/01/26 04:46:54;;;;;;;5.63;0.85;;;18.80;38.40;;;;;;5055601;28;20405;-45
2021/01/26 04:49:26;;;;;;;2.70;0.60;;;18.80;38.40;;;;;;5055664;28;20325;-49
2021/01/26 04:52:09;;;;;;;2.47;0.68;;;18.70;38.40;;;;;;5055656;28;20100;-50
2021/01/26 04:54:56;;;;;;;3.65;1.10;;;18.70;38.40;;;;;;5054446;28;20035;-48
2021/01/26 04:57:39;;;;;;;1.50;0.70;;;18.70;38.40;;;;;;5055656;28;20040;-45
2021/01/26 05:00:31;;;;;;;1.90;0.83;;;18.70;38.40;;;;;;5055768;28;20037;-47
2021/01/26 05:03:10;;;;;;;1.98;0.90;;;18.70;38.50;;;;;;5055587;28;20029;-49
2021/01/26 05:05:42;;;;;;;2.65;0.80;;;18.70;38.50;;;;;;5055328;28;20028;-46
2021/01/26 05:08:24;;;;;;;4.30;0.80;;;18.70;38.50;;;;;;5055406;28;20036;-48
2021/01/26 05:10:54;;;;;;;2.75;0.90;;;18.70;38.50;;;;;;5055575;28;20410;-49
2021/01/26 05:13:32;;;;;;;2.35;0.95;;;18.70;38.50;;;;;;5055253;28;20424;-47
2021/01/26 05:16:12;;;;;;;4.30;1.05;;;18.70;38.50;;;;;;5054994;28;20021;-46
2021/01/26 05:18:48;;;;;;;2.30;0.80;;;18.70;38.60;;;;;;5055268;28;20025;-49
2021/01/26 05:21:33;;;;;;;1.80;0.50;;;18.70;38.60;;;;;;5054818;28;20519;-47
2021/01/26 05:24:07;;;;;;;1.25;0.57;;;18.70;38.60;;;;;;5054777;28;20455;-50
2021/01/26 05:26:32;;;;;;;3.42;1.00;;;18.70;38.60;;;;;;5054831;28;20040;-52
2021/01/26 05:28:58;;;;;;;3.97;1.17;;;18.70;38.60;;;;;;5055299;28;20025;-48
2021/01/26 05:31:28;;;;;;;2.38;0.75;;;18.70;38.70;;;;;;5055088;28;20094;-46
2021/01/26 05:34:03;;;;;;;2.42;0.85;;;18.60;38.60;;;;;;5061423;28;20021;-45
2021/01/26 05:36:29;;;;;;;1.10;0.50;;;18.60;38.60;;;;;;5045758;28;20347;-49
2021/01/26 05:38:54;;;;;;;2.92;0.90;;;18.60;38.60;;;;;;5072170;28;20025;-46
2021/01/26 05:41:21;;;;;;;3.67;0.80;;;18.60;38.60;;;;;;5075069;28;20020;-47
2021/01/26 05:43:47;;;;;;;4.05;0.88;;;18.60;38.60;;;;;;5074914;28;20107;-48
2021/01/26 05:46:33;;;;;;;4.60;1.08;;;18.60;38.80;;;;;;5075092;28;20034;-45
2021/01/26 05:48:59;;;;;;;3.50;1.00;;;18.60;38.80;;;;;;5074645;28;20078;-45
2021/01/26 05:51:27;;;;;;;2.35;0.70;;;18.60;38.90;;;;;;5074829;28;20118;-51
2021/01/26 05:54:00;;;;;;;6.13;0.88;;;18.60;39.00;;;;;;5074504;28;20043;-47
2021/01/26 05:56:28;;;;;;;2.47;0.80;;;18.60;39.70;;;;;;5074873;28;20020;-45
2021/01/26 05:58:53;;;;;;;1.58;0.60;;;18.60;39.20;;;;;;5074601;28;20029;-45
2021/01/26 06:01:32;;;;;;;2.35;0.80;;;18.60;39.30;;;;;;5074784;28;20028;-47
2021/01/26 06:04:12;;;;;;;4.80;0.80;;;18.70;39.60;;;;;;5074616;28;20102;-48
2021/01/26 06:06:57;;;;;;;3.97;1.02;;;18.70;39.50;;;;;;5077409;28;20408;-47
2021/01/26 06:09:29;;;;;;;3.08;1.00;;;18.70;39.60;;;;;;5078687;28;20070;-48
2021/01/26 06:12:03;;;;;;;3.67;1.02;;;18.80;39.60;;;;;;5078786;28;20077;-49
2021/01/26 06:14:29;;;;;;;3.08;0.45;;;18.80;39.70;;;;;;5078899;28;20029;-47
2021/01/26 06:17:04;;;;;;;2.15;0.50;;;18.80;39.70;;;;;;5078492;28;20104;-46
2021/01/26 06:19:29;;;;;;;1.25;0.52;;;18.90;39.80;;;;;;5078416;28;20042;-47
2021/01/26 06:21:55;;;;;;;2.53;0.85;;;18.90;39.70;;;;;;5078152;28;20029;-45
2021/01/26 06:24:23;;;;;;;3.55;0.90;;;18.90;39.80;;;;;;5078384;28;20025;-48
2021/01/26 06:27:08;;;;;;;1.10;0.43;;;18.90;39.80;;;;;;5078517;28;20020;-48
2021/01/26 06:29:38;;;;;;;1.13;0.40;;;19.00;39.80;;;;;;5078280;28;20047;-45
2021/01/26 06:32:14;;;;;;;0.90;0.40;;;19.00;39.90;;;;;;5078835;28;20086;-46
2021/01/26 06:34:49;;;;;;;4.97;0.70;;;19.00;39.90;;;;;;5078720;28;20086;-45
2021/01/26 06:37:33;;;;;;;6.20;0.85;;;19.00;40.00;;;;;;5078030;28;20035;-49
2021/01/26 06:40:33;;;;;;;1.67;0.52;;;19.10;40.00;;;;;;5078486;28;20097;-45
2021/01/26 06:43:19;;;;;;;3.63;0.70;;;19.00;40.30;;;;;;5078494;28;20021;-46
2021/01/26 06:46:11;;;;;;;1.70;0.60;;;19.00;40.20;;;;;;5027106;28;20051;-47
2021/01/26 06:49:01;;;;;;;2.15;0.40;;;19.10;40.20;;;;;;5078038;28;20024;-50
2021/01/26 06:51:54;;;;;;;2.33;0.60;;;19.10;40.20;;;;;;5078074;28;20106;-49
2021/01/26 06:54:51;;;;;;;1.73;0.73;;;19.10;40.20;;;;;;5078013;28;20062;-46
2021/01/26 06:57:32;;;;;;;1.10;0.65;;;19.10;40.20;;;;;;5070437;28;20097;-47
2021/01/26 07:00:20;;;;;;;2.05;0.85;;;19.10;40.30;;;;;;5077620;28;20035;-49
2021/01/26 07:03:14;;;;;;;0.93;0.65;;;19.10;40.30;;;;;;5077619;28;20029;-45
2021/01/26 07:06:17;;;;;;;1.63;0.80;;;19.10;40.30;;;;;;5077793;28;20056;-45
2021/01/26 07:09:12;;;;;;;2.15;0.63;;;19.20;40.40;;;;;;5077794;28;20091;-47
2021/01/26 07:11:58;;;;;;;2.33;0.52;;;19.20;40.30;;;;;;5077839;28;20028;-48
2021/01/26 07:15:04;;;;;;;2.17;0.50;;;19.20;40.30;;;;;;5077404;28;20505;-45
2021/01/26 07:17:38;;;;;;;1.00;0.50;;;19.20;40.50;;;;;;5076782;28;20028;-45
2021/01/26 07:20:30;;;;;;;2.22;0.68;;;19.20;40.50;;;;;;5077090;28;20054;-49
2021/01/26 07:23:13;;;;;;;2.15;0.50;;;19.20;40.50;;;;;;5077471;28;20036;-49
2021/01/26 07:26:01;;;;;;;2.43;0.70;;;19.20;40.50;;;;;;5077643;28;20060;-47
2021/01/26 07:29:06;;;;;;;2.67;0.70;;;19.20;40.50;;;;;;5077017;28;20024;-45
2021/01/26 07:31:38;;;;;;;1.35;0.50;;;19.20;40.50;;;;;;5077259;28;20047;-51
2021/01/26 07:34:14;;;;;;;1.75;0.80;;;19.20;40.50;;;;;;5076881;28;20035;-53
2021/01/26 07:36:46;;;;;;;2.33;0.57;;;19.30;40.60;;;;;;5077439;28;20032;-54
2021/01/26 07:39:35;;;;;;;3.00;1.05;;;19.30;40.60;;;;;;5077188;28;20336;-54
2021/01/26 07:42:36;;;;;;;3.05;0.60;;;19.30;40.60;;;;;;5077250;28;20025;-55
2021/01/26 07:45:10;;;;;;;0.88;0.50;;;19.30;40.60;;;;;;5038495;28;20032;-53
2021/01/26 07:47:38;;;;;;;4.22;0.90;;;19.30;40.70;;;;;;5076957;28;20059;-45
2021/01/26 07:50:25;;;;;;;2.17;0.70;;;19.30;40.70;;;;;;5076340;28;20127;-46
2021/01/26 07:52:56;;;;;;;2.55;0.75;;;19.30;40.80;;;;;;5058916;28;20108;-45
2021/01/26 07:55:33;;;;;;;3.75;1.23;;;19.40;40.90;;;;;;5076823;28;20394;-51
2021/01/26 07:58:05;;;;;;;1.30;0.47;;;19.30;40.80;;;;;;5076384;28;20439;-48
2021/01/26 08:00:38;;;;;;;5.38;0.88;;;19.40;40.90;;;;;;5075745;28;20039;-51
2021/01/26 08:03:04;;;;;;;4.75;0.63;;;19.40;40.90;;;;;;5076853;28;20477;-50
2021/01/26 08:06:02;;;;;;;1.45;0.63;;;19.30;40.80;;;;;;5076633;28;20024;-48
2021/01/26 08:08:39;;;;;;;2.38;0.80;;;19.40;41.60;;;;;;5021651;28;20051;-49
2021/01/26 08:11:21;;;;;;;4.35;0.63;;;19.40;40.90;;;;;;5076233;28;20032;-49
2021/01/26 08:13:53;;;;;;;2.75;0.90;;;19.40;40.90;;;;;;5076502;28;20028;-45
2021/01/26 08:16:34;;;;;;;2.08;0.70;;;19.50;40.90;;;;;;5076180;28;20108;-48
2021/01/26 08:19:04;;;;;;;2.78;0.88;;;19.40;40.90;;;;;;5076484;28;20037;-46
2021/01/26 08:21:42;;;;;;;1.33;0.65;;;19.40;40.90;;;;;;5075980;28;20078;-52
2021/01/26 08:24:22;;;;;;;1.83;0.63;;;19.50;40.90;;;;;;5076535;28;20418;-49
2021/01/26 08:26:50;;;;;;;2.03;0.60;;;19.50;40.90;;;;;;5076050;28;20052;-50
2021/01/26 08:29:37;;;;;;;1.85;0.40;;;19.50;40.80;;;;;;5075193;28;20450;-51
2021/01/26 08:32:27;;;;;;;0.98;0.50;;;19.50;40.80;;;;;;5075872;28;20035;-49
2021/01/26 08:35:06;;;;;;;2.05;0.70;;;19.60;40.90;;;;;;5076084;28;20060;-48
2021/01/26 08:37:41;;;;;;;1.00;0.50;;;19.50;40.80;;;;;;5080519;28;20058;-50
2021/01/26 08:40:17;;;;;;;3.90;0.70;;;19.50;40.80;;;;;;5082435;28;20036;-48
2021/01/26 08:42:43;;;;;;;2.10;0.70;;;19.50;40.70;;;;;;5075657;28;20045;-49
2021/01/26 08:45:27;;;;;;;1.83;0.73;;;19.60;40.70;;;;;;5091533;28;20357;-51
2021/01/26 08:48:07;;;;;;;1.65;0.80;;;19.60;40.70;;;;;;5095499;28;20100;-47
2021/01/26 08:50:39;;;;;;;1.42;0.57;;;19.60;40.70;;;;;;5095601;28;20052;-47
2021/01/26 08:53:23;;;;;;;2.92;0.60;;;19.60;40.60;;;;;;5095512;28;20096;-46
2021/01/26 08:55:57;;;;;;;1.30;0.50;;;19.60;40.60;;;;;;5096012;28;20032;-56
2021/01/26 08:58:48;;;;;;;2.47;0.70;;;19.60;40.60;;;;;;5095694;28;20419;-49
2021/01/26 09:01:22;;;;;;;1.65;0.50;;;19.60;40.60;;;;;;5095258;28;20038;-49
2021/01/26 09:03:52;;;;;;;3.47;1.23;;;19.60;40.70;;;;;;5094797;28;20051;-47
2021/01/26 09:06:39;;;;;;;3.83;0.80;;;19.60;40.70;;;;;;5095012;28;20450;-47
2021/01/26 09:09:31;;;;;;;3.88;0.70;;;19.70;40.70;;;;;;5083243;28;20108;-47
2021/01/26 09:11:59;;;;;;;1.63;0.93;;;19.60;40.60;;;;;;5041749;28;20041;-50
2021/01/26 09:14:45;;;;;;;1.30;0.47;;;19.70;40.60;;;;;;5054893;28;20040;-45
2021/01/26 09:17:28;;;;;;;1.30;0.50;;;19.70;40.60;;;;;;5054949;28;20087;-49
2021/01/26 09:19:57;;;;;;;2.00;0.77;;;19.70;40.60;;;;;;5054517;28;20108;-45
2021/01/26 09:22:29;;;;;;;0.82;0.52;;;19.70;40.50;;;;;;5055168;28;20032;-46
2021/01/26 09:25:03;;;;;;;1.30;0.57;;;19.70;40.40;;;;;;5055121;28;20469;-45
2021/01/26 09:27:35;;;;;;;2.25;0.52;;;19.80;40.50;;;;;;5054642;28;20028;-47
2021/01/26 09:30:07;;;;;;;1.02;0.68;;;19.70;40.40;;;;;;5068233;28;20039;-52
2021/01/26 09:32:35;;;;;;;2.33;0.40;;;19.70;40.30;;;;;;5077771;28;20024;-47
2021/01/26 09:35:20;;;;;;;1.25;0.50;;;19.80;40.30;;;;;;5075628;28;20105;-51
2021/01/26 09:37:46;;;;;;;0.95;0.40;;;19.80;40.30;;;;;;5057323;28;20347;-46
2021/01/26 09:40:13;;;;;;;1.13;0.60;;;19.80;40.30;;;;;;5074454;28;20477;-46
2021/01/26 09:42:40;;;;;;;1.05;0.60;;;19.80;40.20;;;;;;5075006;28;20024;-49
2021/01/26 09:45:09;;;;;;;0.95;0.60;;;19.80;40.20;;;;;;5074910;28;21138;-47
2021/01/26 09:47:35;;;;;;;1.08;0.45;;;19.80;40.20;;;;;;5074566;28;20134;-47
2021/01/26 09:50:08;;;;;;;2.33;0.50;;;19.80;40.20;;;;;;5092820;28;20089;-48
2021/01/26 09:52:35;;;;;;;1.60;0.60;;;19.80;40.10;;;;;;5094707;28;20051;-48
2021/01/26 09:55:14;;;;;;;4.97;0.70;;;19.80;40.10;;;;;;5094943;28;20035;-50
2021/01/26 09:57:41;;;;;;;3.53;0.70;;;19.80;40.00;;;;;;5094644;28;20089;-50
2021/01/26 10:00:12;;;;;;;0.90;0.60;;;19.80;40.00;;;;;;5094895;28;20020;-47
2021/01/26 10:02:40;;;;;;;0.95;0.60;;;19.90;40.10;;;;;;5094398;28;20024;-46
2021/01/26 10:05:16;;;;;;;1.70;0.57;;;19.90;40.00;;;;;;5094562;28;20031;-48
2021/01/26 10:07:42;;;;;;;1.33;0.50;;;19.90;40.00;;;;;;5094983;28;20020;-47
2021/01/26 10:10:21;;;;;;;1.15;0.50;;;19.90;40.00;;;;;;5094623;28;20028;-49
2021/01/26 10:12:47;;;;;;;1.10;0.47;;;19.90;40.00;;;;;;5094793;28;20024;-46
2021/01/26 10:15:16;;;;;;;2.67;0.40;;;20.00;40.10;;;;;;5094558;28;20491;-50
2021/01/26 10:17:43;;;;;;;2.17;0.40;;;20.00;40.10;;;;;;5094622;28;20020;-46
2021/01/26 10:20:10;;;;;;;1.70;0.47;;;20.00;40.10;;;;;;5094562;28;20032;-50
2021/01/26 10:22:36;;;;;;;1.05;0.47;;;20.00;40.00;;;;;;5094303;28;20035;-50
2021/01/26 10:25:07;;;;;;;1.58;0.50;;;20.10;40.10;;;;;;5094648;28;20024;-53
2021/01/26 10:27:36;;;;;;;2.70;0.50;;;20.10;40.20;;;;;;5094563;28;20020;-49
2021/01/26 10:30:12;;;;;;;4.38;0.40;;;20.10;40.20;;;;;;5094785;28;20119;-52
2021/01/26 10:32:49;;;;;;;1.05;0.50;;;20.10;40.20;;;;;;5094680;28;20027;-48
2021/01/26 10:35:35;;;;;;;0.95;0.40;;;20.20;40.30;;;;;;5094324;28;20032;-46
2021/01/26 10:38:27;;;;;;;1.92;0.57;;;20.20;40.30;;;;;;5094751;28;20103;-51
2021/01/26 10:41:20;;;;;;;1.05;0.50;;;20.20;40.30;;;;;;5094228;28;20024;-49
2021/01/26 10:43:45;;;;;;;0.90;0.50;;;20.20;40.40;;;;;;5094954;28;20020;-47
2021/01/26 10:46:31;;;;;;;5.18;0.93;;;20.20;40.30;;;;;;5074932;28;20351;-46
2021/01/26 10:49:23;;;;;;;1.20;0.65;;;20.20;40.40;;;;;;5052964;28;20037;-48
2021/01/26 10:51:49;;;;;;;1.75;0.70;;;20.20;40.50;;;;;;5065113;28;20064;-45
2021/01/26 10:54:14;;;;;;;2.72;0.80;;;20.20;40.50;;;;;;5092806;28;20071;-54
2021/01/26 10:56:43;;;;;;;3.10;0.50;;;20.20;40.50;;;;;;5077907;28;20031;-50
2021/01/26 10:59:08;;;;;;;2.83;0.50;;;20.20;40.50;;;;;;5077689;28;20098;-51
2021/01/26 11:01:36;;;;;;;1.73;0.50;;;20.30;40.50;;;;;;5077888;28;20431;-49
2021/01/26 11:04:02;;;;;;;0.63;0.30;;;20.30;40.50;;;;;;5077661;28;20100;-50
2021/01/26 11:06:27;;;;;;;1.35;0.50;;;20.30;40.50;;;;;;5077478;28;20067;-46
2021/01/26 11:08:54;;;;;;;1.63;0.40;;;20.30;40.40;;;;;;5079741;28;20422;-55
2021/01/26 11:11:23;;;;;;;0.57;0.50;;;20.30;40.40;;;;;;5082896;28;20047;-53
2021/01/26 11:13:50;;;;;;;2.78;0.80;;;20.30;40.40;;;;;;5057341;28;20474;-51
2021/01/26 11:16:16;;;;;;;1.92;0.50;;;20.30;40.40;;;;;;5057523;28;20020;-49
2021/01/26 11:18:42;;;;;;;1.27;0.60;;;20.30;40.40;;;;;;5056674;28;20039;-48
2021/01/26 11:21:07;;;;;;;2.95;0.57;;;20.30;40.40;;;;;;5057633;28;20022;-51
2021/01/26 11:23:33;;;;;;;1.13;0.60;;;20.30;40.30;;;;;;5057444;28;20098;-52
2021/01/26 11:25:59;;;;;;;11.90;0.60;;;20.30;40.30;;;;;;5057158;28;20021;-52
2021/01/26 11:28:25;;;;;;;1.27;0.45;;;20.30;40.30;;;;;;5057106;28;20067;-48
2021/01/26 11:30:50;;;;;;;2.05;0.50;;;20.30;40.30;;;;;;5056972;28;20069;-52
2021/01/26 11:33:16;;;;;;;1.20;0.60;;;20.30;40.30;;;;;;5057514;28;20025;-49
2021/01/26 11:35:42;;;;;;;1.45;0.70;;;20.30;40.30;;;;;;5056757;28;20040;-51
2021/01/26 11:38:07;;;;;;;1.08;0.63;;;20.30;40.40;;;;;;5057140;28;20091;-51
2021/01/26 11:40:33;;;;;;;2.92;0.70;;;20.40;40.40;;;;;;5056044;28;20028;-48
2021/01/26 11:42:59;;;;;;;2.88;0.80;;;20.40;40.40;;;;;;5057150;28;20079;-47
2021/01/26 11:45:30;;;;;;;1.95;0.60;;;20.40;40.40;;;;;;5056946;28;20029;-52
2021/01/26 11:47:57;;;;;;;1.23;0.38;;;20.40;40.40;;;;;;5056645;28;20061;-48
2021/01/26 11:50:22;;;;;;;1.55;0.60;;;20.30;40.30;;;;;;5056902;28;20052;-52
2021/01/26 11:52:48;;;;;;;3.13;1.10;;;20.40;40.40;;;;;;5056387;28;20029;-46
2021/01/26 11:55:20;;;;;;;2.47;0.70;;;20.40;40.50;;;;;;5056793;28;20029;-49
2021/01/26 11:57:47;;;;;;;1.13;0.75;;;20.30;40.30;;;;;;5056662;28;20428;-47
2021/01/26 12:00:15;;;;;;;2.63;0.52;;;20.30;40.10;;;;;;5056333;28;20435;-46
2021/01/26 12:02:40;;;;;;;1.00;0.40;;;20.30;40.00;;;;;;5056206;28;20025;-49
2021/01/26 12:05:06;;;;;;;1.23;0.90;;;20.30;39.90;;;;;;5056287;28;20036;-45
2021/01/26 12:07:32;;;;;;;2.15;0.50;;;20.30;40.10;;;;;;5056650;28;20031;-45
2021/01/26 12:09:57;;;;;;;2.10;0.50;;;20.30;40.90;;;;;;5056057;28;20029;-48
2021/01/26 12:12:23;;;;;;;3.58;0.68;;;20.30;40.30;;;;;;5056162;28;20095;-45
2021/01/26 12:14:48;;;;;;;3.53;0.75;;;20.30;40.30;;;;;;5056590;28;20017;-50
2021/01/26 12:17:14;;;;;;;4.57;0.80;;;20.30;40.40;;;;;;5056397;28;20090;-49
2021/01/26 12:19:39;;;;;;;4.05;0.70;;;20.30;40.40;;;;;;5056078;28;20139;-49
2021/01/26 12:22:05;;;;;;;1.48;0.52;;;20.30;40.40;;;;;;5056463;28;20025;-48
2021/01/26 12:24:30;;;;;;;5.70;0.70;;;20.30;40.50;;;;;;5056281;28;20021;-47
2021/01/26 12:26:56;;;;;;;4.28;0.70;;;20.30;40.60;;;;;;5056185;28;20036;-48
2021/01/26 12:29:22;;;;;;;1.00;0.40;;;20.30;40.70;;;;;;5056348;28;20045;-46
2021/01/26 12:31:48;;;;;;;2.63;0.57;;;20.30;40.70;;;;;;5055966;28;20032;-48
2021/01/26 12:34:14;;;;;;;2.70;0.52;;;20.30;40.70;;;;;;5056111;28;20025;-49
2021/01/26 12:36:40;;;;;;;1.30;0.50;;;20.30;40.60;;;;;;5056113;28;20017;-48
2021/01/26 12:39:05;;;;;;;2.25;0.50;;;20.30;40.70;;;;;;5065201;28;20107;-50
2021/01/26 12:41:31;;;;;;;2.28;0.70;;;20.30;40.70;;;;;;5075095;28;20035;-47
2021/01/26 12:43:58;;;;;;;2.53;0.80;;;20.30;40.70;;;;;;5075470;28;20366;-46
2021/01/26 12:46:25;;;;;;;3.70;0.32;;;20.30;40.70;;;;;;5075415;28;20025;-49
2021/01/26 12:48:50;;;;;;;1.40;0.73;;;20.30;40.70;;;;;;5075636;28;20028;-47
2021/01/26 12:51:16;;;;;;;5.13;0.60;;;20.30;40.70;;;;;;5075260;28;20056;-47
2021/01/26 12:53:42;;;;;;;1.35;0.73;;;20.30;40.60;;;;;;5074388;28;20017;-50
2021/01/26 12:56:07;;;;;;;5.47;1.08;;;20.30;40.60;;;;;;5075267;28;20040;-46
2021/01/26 12:58:33;;;;;;;3.28;0.75;;;20.30;40.60;;;;;;5075443;28;20036;-47
2021/01/26 13:00:58;;;;;;;1.50;0.50;;;20.30;40.50;;;;;;5075060;28;20354;-48
2021/01/26 13:03:23;;;;;;;2.50;0.52;;;20.30;40.50;;;;;;5075446;28;20024;-50
2021/01/26 13:05:49;;;;;;;2.20;0.60;;;20.30;40.50;;;;;;5075058;28;20099;-47
2021/01/26 13:08:15;;;;;;;2.70;0.75;;;20.30;40.40;;;;;;5078437;28;20399;-46
2021/01/26 13:10:40;;;;;;;0.93;0.50;;;20.30;40.30;;;;;;5082158;28;20031;-46
2021/01/26 13:13:06;;;;;;;0.80;0.45;;;20.30;40.30;;;;;;5075233;28;20092;-49
2021/01/26 13:15:32;;;;;;;3.88;0.63;;;20.30;40.30;;;;;;5074231;28;20388;-49
2021/01/26 13:17:57;;;;;;;4.15;0.85;;;20.30;41.00;;;;;;5075131;28;20149;-47
2021/01/26 13:20:23;;;;;;;1.83;0.77;;;20.30;40.30;;;;;;5075253;28;20056;-48